sensor_id;sensor_type;location;lat;lon;timestamp;P1;durP1;ratioP1;P2;durP2;ratioP2
10082;SDS011;5080;48.528;8.078;2023-11-19T00:00:51;19.13;;;18.53;;
10082;SDS011;5080;48.528;8.078;2023-11-19T00:03:18;19.40;;;18.73;;
10082;SDS011;5080;48.528;8.078;2023-11-19T00:05:45;18.13;;;17.53;;
10082;SDS011;5080;48.528;8.078;2023-11-19T00:08:12;18.20;;;17.60;;
10082;SDS011;5080;48.528;8.078;2023-11-19T00:10:40;18.53;;;17.93;;
10082;SDS011;5080;48.528;8.078;2023-11-19T00:13:07;19.17;;;18.50;;
10082;SDS011;5080;48.528;8.078;2023-11-19T00:15:35;18.40;;;17.80;;
10082;SDS011;5080;48.528;8.078;2023-11-19T00:18:02;20.97;;;20.27;;
10082;SDS011;5080;48.528;8.078;2023-11-19T00:20:29;21.67;;;20.93;;
10082;SDS011;5080;48.528;8.078;2023-11-19T00:22:56;21.60;;;20.90;;
10082;SDS011;5080;48.528;8.078;2023-11-19T00:25:23;23.53;;;22.73;;
10082;SDS011;5080;48.528;8.078;2023-11-19T00:27:51;21.93;;;21.23;;
10082;SDS011;5080;48.528;8.078;2023-11-19T00:30:18;23.20;;;22.40;;
10082;SDS011;5080;48.528;8.078;2023-11-19T00:32:45;23.53;;;22.73;;
10082;SDS011;5080;48.528;8.078;2023-11-19T00:35:12;24.13;;;23.33;;
10082;SDS011;5080;48.528;8.078;2023-11-19T00:37:40;25.37;;;24.47;;
10082;SDS011;5080;48.528;8.078;2023-11-19T00:40:08;25.87;;;24.97;;
10082;SDS011;5080;48.528;8.078;2023-11-19T00:42:35;25.73;;;24.83;;
10082;SDS011;5080;48.528;8.078;2023-11-19T00:45:04;26.53;;;25.63;;
10082;SDS011;5080;48.528;8.078;2023-11-19T00:47:33;26.07;;;25.17;;
10082;SDS011;5080;48.528;8.078;2023-11-19T00:50:00;27.33;;;26.43;;
10082;SDS011;5080;48.528;8.078;2023-11-19T00:52:27;29.37;;;28.37;;
10082;SDS011;5080;48.528;8.078;2023-11-19T00:54:54;32.67;;;31.57;;
10082;SDS011;5080;48.528;8.078;2023-11-19T00:57:21;31.50;;;30.40;;
10082;SDS011;5080;48.528;8.078;2023-11-19T00:59:49;32.43;;;31.30;;
10082;SDS011;5080;48.528;8.078;2023-11-19T01:02:17;28.17;;;27.20;;
10082;SDS011;5080;48.528;8.078;2023-11-19T01:04:43;30.20;;;29.17;;
10082;SDS011;5080;48.528;8.078;2023-11-19T01:07:10;32.10;;;31.00;;
10082;SDS011;5080;48.528;8.078;2023-11-19T01:09:38;31.67;;;30.57;;
10082;SDS011;5080;48.528;8.078;2023-11-19T01:12:05;31.20;;;30.13;;
10082;SDS011;5080;48.528;8.078;2023-11-19T01:14:34;32.50;;;31.40;;
10082;SDS011;5080;48.528;8.078;2023-11-19T01:17:01;30.87;;;29.77;;
10082;SDS011;5080;48.528;8.078;2023-11-19T01:19:31;27.17;;;26.20;;
10082;SDS011;5080;48.528;8.078;2023-11-19T01:21:58;26.70;;;25.77;;
10082;SDS011;5080;48.528;8.078;2023-11-19T01:24:24;31.60;;;30.50;;
10082;SDS011;5080;48.528;8.078;2023-11-19T01:26:53;30.83;;;29.73;;
10082;SDS011;5080;48.528;8.078;2023-11-19T01:29:20;31.00;;;29.90;;
10082;SDS011;5080;48.528;8.078;2023-11-19T01:31:47;32.20;;;31.07;;
10082;SDS011;5080;48.528;8.078;2023-11-19T01:34:16;34.20;;;33.00;;
10082;SDS011;5080;48.528;8.078;2023-11-19T01:36:44;31.83;;;30.73;;
10082;SDS011;5080;48.528;8.078;2023-11-19T01:39:13;29.70;;;28.70;;
10082;SDS011;5080;48.528;8.078;2023-11-19T01:41:41;34.40;;;33.20;;
10082;SDS011;5080;48.528;8.078;2023-11-19T01:44:08;34.67;;;33.47;;
10082;SDS011;5080;48.528;8.078;2023-11-19T01:46:37;34.90;;;33.70;;
10082;SDS011;5080;48.528;8.078;2023-11-19T01:49:04;34.43;;;33.23;;
10082;SDS011;5080;48.528;8.078;2023-11-19T01:51:32;34.53;;;33.33;;
10082;SDS011;5080;48.528;8.078;2023-11-19T01:54:00;30.83;;;29.77;;
10082;SDS011;5080;48.528;8.078;2023-11-19T01:56:28;28.23;;;27.27;;
10082;SDS011;5080;48.528;8.078;2023-11-19T01:58:56;29.90;;;28.87;;
10082;SDS011;5080;48.528;8.078;2023-11-19T02:01:23;29.10;;;28.10;;
10082;SDS011;5080;48.528;8.078;2023-11-19T02:03:50;23.83;;;23.03;;
10082;SDS011;5080;48.528;8.078;2023-11-19T02:06:18;26.10;;;25.20;;
10082;SDS011;5080;48.528;8.078;2023-11-19T02:08:45;26.30;;;25.40;;
10082;SDS011;5080;48.528;8.078;2023-11-19T02:11:13;26.03;;;25.13;;
10082;SDS011;5080;48.528;8.078;2023-11-19T02:13:40;26.77;;;25.83;;
10082;SDS011;5080;48.528;8.078;2023-11-19T02:16:08;25.70;;;24.80;;
10082;SDS011;5080;48.528;8.078;2023-11-19T02:18:36;25.50;;;24.60;;
10082;SDS011;5080;48.528;8.078;2023-11-19T02:21:03;30.07;;;29.00;;
10082;SDS011;5080;48.528;8.078;2023-11-19T02:23:31;26.07;;;25.17;;
10082;SDS011;5080;48.528;8.078;2023-11-19T02:26:00;28.57;;;27.57;;
10082;SDS011;5080;48.528;8.078;2023-11-19T02:28:31;25.30;;;24.43;;
10082;SDS011;5080;48.528;8.078;2023-11-19T02:30:59;25.03;;;24.17;;
10082;SDS011;5080;48.528;8.078;2023-11-19T02:33:26;26.03;;;25.17;;
10082;SDS011;5080;48.528;8.078;2023-11-19T02:35:53;27.93;;;26.93;;
10082;SDS011;5080;48.528;8.078;2023-11-19T02:38:21;28.60;;;27.60;;
10082;SDS011;5080;48.528;8.078;2023-11-19T02:40:48;28.93;;;27.90;;
10082;SDS011;5080;48.528;8.078;2023-11-19T02:43:15;26.33;;;25.43;;
10082;SDS011;5080;48.528;8.078;2023-11-19T02:45:44;29.40;;;28.40;;
10082;SDS011;5080;48.528;8.078;2023-11-19T02:48:11;28.33;;;27.33;;
10082;SDS011;5080;48.528;8.078;2023-11-19T02:50:39;30.70;;;29.63;;
10082;SDS011;5080;48.528;8.078;2023-11-19T02:53:06;29.43;;;28.40;;
10082;SDS011;5080;48.528;8.078;2023-11-19T02:55:33;32.97;;;31.80;;
10082;SDS011;5080;48.528;8.078;2023-11-19T02:58:03;34.00;;;32.83;;
10082;SDS011;5080;48.528;8.078;2023-11-19T03:00:34;33.63;;;32.47;;
10082;SDS011;5080;48.528;8.078;2023-11-19T03:03:08;35.90;;;34.70;;
10082;SDS011;5080;48.528;8.078;2023-11-19T03:05:45;35.47;;;34.27;;
10082;SDS011;5080;48.528;8.078;2023-11-19T03:08:12;35.40;;;34.20;;
10082;SDS011;5080;48.528;8.078;2023-11-19T03:10:39;32.73;;;31.60;;
10082;SDS011;5080;48.528;8.078;2023-11-19T03:13:06;31.03;;;29.93;;
10082;SDS011;5080;48.528;8.078;2023-11-19T03:15:38;32.03;;;30.93;;
10082;SDS011;5080;48.528;8.078;2023-11-19T03:18:04;28.83;;;27.83;;
10082;SDS011;5080;48.528;8.078;2023-11-19T03:20:32;28.20;;;27.20;;
10082;SDS011;5080;48.528;8.078;2023-11-19T03:22:59;31.73;;;30.67;;
10082;SDS011;5080;48.528;8.078;2023-11-19T03:25:26;28.50;;;27.53;;
10082;SDS011;5080;48.528;8.078;2023-11-19T03:27:58;28.33;;;27.37;;
10082;SDS011;5080;48.528;8.078;2023-11-19T03:30:25;30.20;;;29.17;;
10082;SDS011;5080;48.528;8.078;2023-11-19T03:32:53;26.80;;;25.90;;
10082;SDS011;5080;48.528;8.078;2023-11-19T03:35:20;27.90;;;26.93;;
10082;SDS011;5080;48.528;8.078;2023-11-19T03:37:48;27.37;;;26.43;;
10082;SDS011;5080;48.528;8.078;2023-11-19T03:40:15;28.90;;;27.90;;
10082;SDS011;5080;48.528;8.078;2023-11-19T03:42:42;27.60;;;26.60;;
10082;SDS011;5080;48.528;8.078;2023-11-19T03:45:09;28.20;;;27.20;;
10082;SDS011;5080;48.528;8.078;2023-11-19T03:47:37;31.33;;;30.23;;
10082;SDS011;5080;48.528;8.078;2023-11-19T03:50:10;30.43;;;29.40;;
10082;SDS011;5080;48.528;8.078;2023-11-19T03:52:37;35.67;;;34.43;;
10082;SDS011;5080;48.528;8.078;2023-11-19T03:55:05;33.63;;;32.47;;
10082;SDS011;5080;48.528;8.078;2023-11-19T03:57:33;31.77;;;30.67;;
10082;SDS011;5080;48.528;8.078;2023-11-19T04:00:00;32.40;;;31.30;;
10082;SDS011;5080;48.528;8.078;2023-11-19T04:02:33;34.47;;;33.27;;
10082;SDS011;5080;48.528;8.078;2023-11-19T04:04:59;32.13;;;31.03;;
10082;SDS011;5080;48.528;8.078;2023-11-19T04:07:26;31.40;;;30.30;;
10082;SDS011;5080;48.528;8.078;2023-11-19T04:09:53;30.27;;;29.23;;
10082;SDS011;5080;48.528;8.078;2023-11-19T04:12:21;33.73;;;32.57;;
10082;SDS011;5080;48.528;8.078;2023-11-19T04:14:48;34.07;;;32.90;;
10082;SDS011;5080;48.528;8.078;2023-11-19T04:17:14;35.77;;;34.57;;
10082;SDS011;5080;48.528;8.078;2023-11-19T04:19:41;37.83;;;36.53;;
10082;SDS011;5080;48.528;8.078;2023-11-19T04:22:08;33.90;;;32.70;;
10082;SDS011;5080;48.528;8.078;2023-11-19T04:24:35;32.63;;;31.50;;
10082;SDS011;5080;48.528;8.078;2023-11-19T04:27:03;34.63;;;33.43;;
10082;SDS011;5080;48.528;8.078;2023-11-19T04:29:32;27.53;;;26.57;;
10082;SDS011;5080;48.528;8.078;2023-11-19T04:31:59;34.10;;;32.93;;
10082;SDS011;5080;48.528;8.078;2023-11-19T04:34:26;37.20;;;35.90;;
10082;SDS011;5080;48.528;8.078;2023-11-19T04:36:53;35.03;;;33.80;;
10082;SDS011;5080;48.528;8.078;2023-11-19T04:39:20;25.63;;;24.77;;
10082;SDS011;5080;48.528;8.078;2023-11-19T04:41:47;25.23;;;24.37;;
10082;SDS011;5080;48.528;8.078;2023-11-19T04:44:16;22.90;;;22.13;;
10082;SDS011;5080;48.528;8.078;2023-11-19T04:46:45;30.00;;;28.97;;
10082;SDS011;5080;48.528;8.078;2023-11-19T04:49:12;23.80;;;23.00;;
10082;SDS011;5080;48.528;8.078;2023-11-19T04:51:39;24.87;;;24.00;;
10082;SDS011;5080;48.528;8.078;2023-11-19T04:54:07;24.50;;;23.67;;
10082;SDS011;5080;48.528;8.078;2023-11-19T04:56:34;21.50;;;20.77;;
10082;SDS011;5080;48.528;8.078;2023-11-19T04:59:02;21.10;;;20.37;;
10082;SDS011;5080;48.528;8.078;2023-11-19T05:01:30;32.30;;;31.17;;
10082;SDS011;5080;48.528;8.078;2023-11-19T05:03:59;25.50;;;24.63;;
10082;SDS011;5080;48.528;8.078;2023-11-19T05:06:26;32.13;;;31.00;;
10082;SDS011;5080;48.528;8.078;2023-11-19T05:08:54;32.77;;;31.60;;
10082;SDS011;5080;48.528;8.078;2023-11-19T05:11:21;35.83;;;34.60;;
10082;SDS011;5080;48.528;8.078;2023-11-19T05:13:48;42.13;;;40.67;;
10082;SDS011;5080;48.528;8.078;2023-11-19T05:16:15;41.33;;;39.93;;
10082;SDS011;5080;48.528;8.078;2023-11-19T05:18:42;37.80;;;36.50;;
10082;SDS011;5080;48.528;8.078;2023-11-19T05:21:10;36.77;;;35.47;;
10082;SDS011;5080;48.528;8.078;2023-11-19T05:23:37;34.00;;;32.80;;
10082;SDS011;5080;48.528;8.078;2023-11-19T05:26:04;30.43;;;29.37;;
10082;SDS011;5080;48.528;8.078;2023-11-19T05:28:31;32.90;;;31.73;;
10082;SDS011;5080;48.528;8.078;2023-11-19T05:30:58;31.83;;;30.70;;
10082;SDS011;5080;48.528;8.078;2023-11-19T05:33:25;30.77;;;29.70;;
10082;SDS011;5080;48.528;8.078;2023-11-19T05:35:52;31.20;;;30.10;;
10082;SDS011;5080;48.528;8.078;2023-11-19T05:38:20;32.13;;;31.00;;
10082;SDS011;5080;48.528;8.078;2023-11-19T05:40:47;28.53;;;27.53;;
10082;SDS011;5080;48.528;8.078;2023-11-19T05:43:14;30.97;;;29.90;;
10082;SDS011;5080;48.528;8.078;2023-11-19T05:45:42;26.23;;;25.33;;
10082;SDS011;5080;48.528;8.078;2023-11-19T05:48:09;32.37;;;31.23;;
10082;SDS011;5080;48.528;8.078;2023-11-19T05:50:35;33.53;;;32.37;;
10082;SDS011;5080;48.528;8.078;2023-11-19T05:53:02;31.67;;;30.53;;
10082;SDS011;5080;48.528;8.078;2023-11-19T05:55:33;29.70;;;28.67;;
10082;SDS011;5080;48.528;8.078;2023-11-19T05:58:00;28.00;;;27.03;;
10082;SDS011;5080;48.528;8.078;2023-11-19T06:00:28;31.43;;;30.33;;
10082;SDS011;5080;48.528;8.078;2023-11-19T06:02:55;28.73;;;27.77;;
10082;SDS011;5080;48.528;8.078;2023-11-19T06:05:22;27.23;;;26.30;;
10082;SDS011;5080;48.528;8.078;2023-11-19T06:07:49;31.20;;;30.13;;
10082;SDS011;5080;48.528;8.078;2023-11-19T06:10:16;28.87;;;27.87;;
10082;SDS011;5080;48.528;8.078;2023-11-19T06:12:45;26.37;;;25.47;;
10082;SDS011;5080;48.528;8.078;2023-11-19T06:15:12;28.67;;;27.67;;
10082;SDS011;5080;48.528;8.078;2023-11-19T06:17:39;27.87;;;26.90;;
10082;SDS011;5080;48.528;8.078;2023-11-19T06:20:06;32.20;;;31.03;;
10082;SDS011;5080;48.528;8.078;2023-11-19T06:22:34;27.10;;;26.17;;
10082;SDS011;5080;48.528;8.078;2023-11-19T06:25:01;24.37;;;23.53;;
10082;SDS011;5080;48.528;8.078;2023-11-19T06:27:32;29.07;;;28.07;;
10082;SDS011;5080;48.528;8.078;2023-11-19T06:30:00;23.63;;;22.83;;
10082;SDS011;5080;48.528;8.078;2023-11-19T06:32:27;22.47;;;21.70;;
10082;SDS011;5080;48.528;8.078;2023-11-19T06:34:54;21.47;;;20.70;;
10082;SDS011;5080;48.528;8.078;2023-11-19T06:37:21;23.10;;;22.33;;
10082;SDS011;5080;48.528;8.078;2023-11-19T06:39:48;22.17;;;21.43;;
10082;SDS011;5080;48.528;8.078;2023-11-19T06:42:15;21.03;;;20.33;;
10082;SDS011;5080;48.528;8.078;2023-11-19T06:44:42;26.23;;;25.33;;
10082;SDS011;5080;48.528;8.078;2023-11-19T06:47:10;31.30;;;30.23;;
10082;SDS011;5080;48.528;8.078;2023-11-19T06:49:37;24.97;;;24.10;;
10082;SDS011;5080;48.528;8.078;2023-11-19T06:52:04;24.90;;;24.03;;
10082;SDS011;5080;48.528;8.078;2023-11-19T06:54:31;29.37;;;28.33;;
10082;SDS011;5080;48.528;8.078;2023-11-19T06:56:58;29.80;;;28.77;;
10082;SDS011;5080;48.528;8.078;2023-11-19T06:59:25;30.57;;;29.50;;
10082;SDS011;5080;48.528;8.078;2023-11-19T07:01:51;32.43;;;31.30;;
10082;SDS011;5080;48.528;8.078;2023-11-19T07:04:20;34.70;;;33.50;;
10082;SDS011;5080;48.528;8.078;2023-11-19T07:06:46;29.20;;;28.20;;
10082;SDS011;5080;48.528;8.078;2023-11-19T07:09:14;28.37;;;27.40;;
10082;SDS011;5080;48.528;8.078;2023-11-19T07:11:41;24.43;;;23.60;;
10082;SDS011;5080;48.528;8.078;2023-11-19T07:14:09;23.00;;;22.23;;
10082;SDS011;5080;48.528;8.078;2023-11-19T07:16:36;17.90;;;17.30;;
10082;SDS011;5080;48.528;8.078;2023-11-19T07:19:03;20.57;;;19.87;;
10082;SDS011;5080;48.528;8.078;2023-11-19T07:21:32;19.10;;;18.43;;
10082;SDS011;5080;48.528;8.078;2023-11-19T07:24:00;20.33;;;19.63;;
10082;SDS011;5080;48.528;8.078;2023-11-19T07:26:28;18.77;;;18.17;;
10082;SDS011;5080;48.528;8.078;2023-11-19T07:28:55;18.53;;;17.93;;
10082;SDS011;5080;48.528;8.078;2023-11-19T07:31:21;19.80;;;19.10;;
10082;SDS011;5080;48.528;8.078;2023-11-19T07:33:50;20.17;;;19.47;;
10082;SDS011;5080;48.528;8.078;2023-11-19T07:36:16;18.93;;;18.33;;
10082;SDS011;5080;48.528;8.078;2023-11-19T07:38:45;18.07;;;17.47;;
10082;SDS011;5080;48.528;8.078;2023-11-19T07:41:11;17.30;;;16.70;;
10082;SDS011;5080;48.528;8.078;2023-11-19T07:43:38;19.10;;;18.47;;
10082;SDS011;5080;48.528;8.078;2023-11-19T07:46:10;20.63;;;19.93;;
10082;SDS011;5080;48.528;8.078;2023-11-19T07:48:38;17.67;;;17.07;;
10082;SDS011;5080;48.528;8.078;2023-11-19T07:51:04;19.20;;;18.57;;
10082;SDS011;5080;48.528;8.078;2023-11-19T07:53:31;18.80;;;18.20;;
10082;SDS011;5080;48.528;8.078;2023-11-19T07:56:00;19.97;;;19.27;;
10082;SDS011;5080;48.528;8.078;2023-11-19T07:58:27;20.50;;;19.80;;
10082;SDS011;5080;48.528;8.078;2023-11-19T08:00:54;17.30;;;16.70;;
10082;SDS011;5080;48.528;8.078;2023-11-19T08:03:20;18.43;;;17.83;;
10082;SDS011;5080;48.528;8.078;2023-11-19T08:05:48;20.17;;;19.47;;
10082;SDS011;5080;48.528;8.078;2023-11-19T08:08:15;18.97;;;18.27;;
10082;SDS011;5080;48.528;8.078;2023-11-19T08:10:41;18.87;;;18.27;;
10082;SDS011;5080;48.528;8.078;2023-11-19T08:13:10;19.80;;;19.10;;
10082;SDS011;5080;48.528;8.078;2023-11-19T08:15:37;17.43;;;16.83;;
10082;SDS011;5080;48.528;8.078;2023-11-19T08:18:05;19.10;;;18.50;;
10082;SDS011;5080;48.528;8.078;2023-11-19T08:20:32;20.07;;;19.37;;
10082;SDS011;5080;48.528;8.078;2023-11-19T08:22:59;19.70;;;19.00;;
10082;SDS011;5080;48.528;8.078;2023-11-19T08:25:26;20.13;;;19.43;;
10082;SDS011;5080;48.528;8.078;2023-11-19T08:27:54;17.17;;;16.57;;
10082;SDS011;5080;48.528;8.078;2023-11-19T08:30:22;16.57;;;16.00;;
10082;SDS011;5080;48.528;8.078;2023-11-19T08:32:49;15.33;;;14.83;;
10082;SDS011;5080;48.528;8.078;2023-11-19T08:35:16;15.63;;;15.10;;
10082;SDS011;5080;48.528;8.078;2023-11-19T08:37:43;15.10;;;14.60;;
10082;SDS011;5080;48.528;8.078;2023-11-19T08:40:11;14.77;;;14.27;;
10082;SDS011;5080;48.528;8.078;2023-11-19T08:42:39;14.70;;;14.20;;
10082;SDS011;5080;48.528;8.078;2023-11-19T08:45:06;18.53;;;17.93;;
10082;SDS011;5080;48.528;8.078;2023-11-19T08:47:36;18.63;;;18.00;;
10082;SDS011;5080;48.528;8.078;2023-11-19T08:50:03;18.30;;;17.70;;
10082;SDS011;5080;48.528;8.078;2023-11-19T08:52:31;17.83;;;17.23;;
10082;SDS011;5080;48.528;8.078;2023-11-19T08:54:58;18.53;;;17.93;;
10082;SDS011;5080;48.528;8.078;2023-11-19T08:57:24;17.50;;;16.90;;
10082;SDS011;5080;48.528;8.078;2023-11-19T08:59:51;17.57;;;16.97;;
10082;SDS011;5080;48.528;8.078;2023-11-19T09:02:18;17.80;;;17.20;;
10082;SDS011;5080;48.528;8.078;2023-11-19T09:04:46;17.60;;;17.00;;
10082;SDS011;5080;48.528;8.078;2023-11-19T09:07:13;18.90;;;18.30;;
10082;SDS011;5080;48.528;8.078;2023-11-19T09:09:39;18.60;;;18.00;;
10082;SDS011;5080;48.528;8.078;2023-11-19T09:12:06;18.70;;;18.10;;
10082;SDS011;5080;48.528;8.078;2023-11-19T09:14:33;17.90;;;17.30;;
10082;SDS011;5080;48.528;8.078;2023-11-19T09:17:00;19.17;;;18.47;;
10082;SDS011;5080;48.528;8.078;2023-11-19T09:19:27;19.10;;;18.50;;
10082;SDS011;5080;48.528;8.078;2023-11-19T09:21:55;19.23;;;18.63;;
10082;SDS011;5080;48.528;8.078;2023-11-19T09:24:22;18.00;;;17.40;;
10082;SDS011;5080;48.528;8.078;2023-11-19T09:26:49;18.43;;;17.63;;
10082;SDS011;5080;48.528;8.078;2023-11-19T09:29:15;18.33;;;17.73;;
10082;SDS011;5080;48.528;8.078;2023-11-19T09:31:42;20.13;;;19.43;;
10082;SDS011;5080;48.528;8.078;2023-11-19T09:34:09;19.17;;;18.50;;
10082;SDS011;5080;48.528;8.078;2023-11-19T09:36:36;18.03;;;17.43;;
10082;SDS011;5080;48.528;8.078;2023-11-19T09:39:04;18.17;;;17.57;;
10082;SDS011;5080;48.528;8.078;2023-11-19T09:41:33;18.63;;;18.03;;
10082;SDS011;5080;48.528;8.078;2023-11-19T09:44:00;21.17;;;20.47;;
10082;SDS011;5080;48.528;8.078;2023-11-19T09:46:27;14.53;;;14.03;;
10082;SDS011;5080;48.528;8.078;2023-11-19T09:48:55;14.03;;;13.53;;
10082;SDS011;5080;48.528;8.078;2023-11-19T09:51:24;15.33;;;14.83;;
10082;SDS011;5080;48.528;8.078;2023-11-19T09:53:51;14.77;;;14.27;;
10082;SDS011;5080;48.528;8.078;2023-11-19T09:56:19;15.33;;;14.83;;
10082;SDS011;5080;48.528;8.078;2023-11-19T09:58:47;18.63;;;18.03;;
10082;SDS011;5080;48.528;8.078;2023-11-19T10:01:14;18.60;;;18.00;;
10082;SDS011;5080;48.528;8.078;2023-11-19T10:03:40;14.70;;;14.20;;
10082;SDS011;5080;48.528;8.078;2023-11-19T10:06:09;17.37;;;16.77;;
10082;SDS011;5080;48.528;8.078;2023-11-19T10:08:36;15.27;;;14.77;;
10082;SDS011;5080;48.528;8.078;2023-11-19T10:11:05;13.70;;;13.20;;
10082;SDS011;5080;48.528;8.078;2023-11-19T10:13:33;14.03;;;13.53;;
10082;SDS011;5080;48.528;8.078;2023-11-19T10:16:03;13.33;;;12.93;;
10082;SDS011;5080;48.528;8.078;2023-11-19T10:18:33;13.73;;;13.27;;
10082;SDS011;5080;48.528;8.078;2023-11-19T10:21:03;17.43;;;16.83;;
10082;SDS011;5080;48.528;8.078;2023-11-19T10:23:31;13.40;;;13.00;;
10082;SDS011;5080;48.528;8.078;2023-11-19T10:26:02;14.43;;;13.93;;
10082;SDS011;5080;48.528;8.078;2023-11-19T10:28:39;12.83;;;12.43;;
10082;SDS011;5080;48.528;8.078;2023-11-19T10:31:08;12.93;;;12.53;;
10082;SDS011;5080;48.528;8.078;2023-11-19T10:33:35;13.00;;;12.60;;
10082;SDS011;5080;48.528;8.078;2023-11-19T10:36:01;13.10;;;12.70;;
10082;SDS011;5080;48.528;8.078;2023-11-19T10:38:28;13.90;;;13.40;;
10082;SDS011;5080;48.528;8.078;2023-11-19T10:40:56;15.97;;;15.40;;
10082;SDS011;5080;48.528;8.078;2023-11-19T10:43:24;14.93;;;14.43;;
10082;SDS011;5080;48.528;8.078;2023-11-19T10:45:52;16.03;;;15.53;;
10082;SDS011;5080;48.528;8.078;2023-11-19T10:48:18;15.30;;;14.80;;
10082;SDS011;5080;48.528;8.078;2023-11-19T10:50:46;14.97;;;14.47;;
10082;SDS011;5080;48.528;8.078;2023-11-19T10:53:19;16.23;;;15.70;;
10082;SDS011;5080;48.528;8.078;2023-11-19T10:55:51;13.87;;;13.37;;
10082;SDS011;5080;48.528;8.078;2023-11-19T10:58:19;14.80;;;14.30;;
10082;SDS011;5080;48.528;8.078;2023-11-19T11:00:47;14.53;;;14.03;;
10082;SDS011;5080;48.528;8.078;2023-11-19T11:03:20;14.70;;;14.20;;
10082;SDS011;5080;48.528;8.078;2023-11-19T11:05:48;16.27;;;15.67;;
10082;SDS011;5080;48.528;8.078;2023-11-19T11:08:16;14.27;;;13.77;;
10082;SDS011;5080;48.528;8.078;2023-11-19T11:10:44;14.47;;;13.97;;
10082;SDS011;5080;48.528;8.078;2023-11-19T11:13:14;16.93;;;16.33;;
10082;SDS011;5080;48.528;8.078;2023-11-19T11:15:41;14.40;;;13.90;;
10082;SDS011;5080;48.528;8.078;2023-11-19T11:18:08;14.63;;;14.13;;
10082;SDS011;5080;48.528;8.078;2023-11-19T11:20:37;15.03;;;14.53;;
10082;SDS011;5080;48.528;8.078;2023-11-19T11:23:13;14.73;;;14.23;;
10082;SDS011;5080;48.528;8.078;2023-11-19T11:26:12;15.67;;;15.17;;
10082;SDS011;5080;48.528;8.078;2023-11-19T11:28:52;13.83;;;13.33;;
10082;SDS011;5080;48.528;8.078;2023-11-19T11:31:29;14.50;;;14.00;;
10082;SDS011;5080;48.528;8.078;2023-11-19T11:34:24;14.47;;;13.97;;
10082;SDS011;5080;48.528;8.078;2023-11-19T11:37:19;14.37;;;13.87;;
10082;SDS011;5080;48.528;8.078;2023-11-19T11:39:52;13.57;;;13.07;;
10082;SDS011;5080;48.528;8.078;2023-11-19T11:42:32;14.63;;;14.13;;
10082;SDS011;5080;48.528;8.078;2023-11-19T11:44:59;15.17;;;14.67;;
10082;SDS011;5080;48.528;8.078;2023-11-19T11:50:28;14.57;;;14.07;;
10082;SDS011;5080;48.528;8.078;2023-11-19T11:53:17;13.20;;;12.80;;
10082;SDS011;5080;48.528;8.078;2023-11-19T11:55:52;14.13;;;13.63;;
10082;SDS011;5080;48.528;8.078;2023-11-19T11:58:31;14.10;;;13.60;;
10082;SDS011;5080;48.528;8.078;2023-11-19T12:01:00;13.70;;;13.23;;
10082;SDS011;5080;48.528;8.078;2023-11-19T12:03:28;13.70;;;13.20;;
10082;SDS011;5080;48.528;8.078;2023-11-19T12:05:56;13.30;;;12.90;;
10082;SDS011;5080;48.528;8.078;2023-11-19T12:08:26;14.13;;;13.63;;
10082;SDS011;5080;48.528;8.078;2023-11-19T12:10:55;13.50;;;13.00;;
10082;SDS011;5080;48.528;8.078;2023-11-19T12:16:31;12.90;;;12.50;;
10082;SDS011;5080;48.528;8.078;2023-11-19T12:19:03;13.40;;;12.90;;
10082;SDS011;5080;48.528;8.078;2023-11-19T12:21:31;12.70;;;12.30;;
10082;SDS011;5080;48.528;8.078;2023-11-19T12:23:59;12.20;;;11.80;;
10082;SDS011;5080;48.528;8.078;2023-11-19T12:26:33;12.67;;;12.27;;
10082;SDS011;5080;48.528;8.078;2023-11-19T12:29:01;13.13;;;12.73;;
10082;SDS011;5080;48.528;8.078;2023-11-19T12:31:31;13.30;;;12.90;;
10082;SDS011;5080;48.528;8.078;2023-11-19T12:34:00;12.87;;;12.47;;
10082;SDS011;5080;48.528;8.078;2023-11-19T12:36:31;12.50;;;12.10;;
10082;SDS011;5080;48.528;8.078;2023-11-19T12:38:59;13.23;;;12.73;;
10082;SDS011;5080;48.528;8.078;2023-11-19T12:41:26;12.50;;;12.10;;
10082;SDS011;5080;48.528;8.078;2023-11-19T12:43:54;12.70;;;12.30;;
10082;SDS011;5080;48.528;8.078;2023-11-19T12:46:34;12.70;;;12.30;;
10082;SDS011;5080;48.528;8.078;2023-11-19T12:49:01;13.57;;;13.07;;
10082;SDS011;5080;48.528;8.078;2023-11-19T12:51:30;12.70;;;12.30;;
10082;SDS011;5080;48.528;8.078;2023-11-19T12:53:57;12.53;;;12.13;;
10082;SDS011;5080;48.528;8.078;2023-11-19T12:56:25;13.23;;;12.73;;
10082;SDS011;5080;48.528;8.078;2023-11-19T12:58:52;13.30;;;12.90;;
10082;SDS011;5080;48.528;8.078;2023-11-19T13:01:19;12.87;;;12.47;;
10082;SDS011;5080;48.528;8.078;2023-11-19T13:03:47;16.80;;;16.20;;
10082;SDS011;5080;48.528;8.078;2023-11-19T13:06:16;13.40;;;13.00;;
10082;SDS011;5080;48.528;8.078;2023-11-19T13:08:46;13.57;;;13.13;;
10082;SDS011;5080;48.528;8.078;2023-11-19T13:11:29;15.83;;;15.30;;
10082;SDS011;5080;48.528;8.078;2023-11-19T13:13:57;17.63;;;17.03;;
10082;SDS011;5080;48.528;8.078;2023-11-19T13:16:25;14.70;;;14.20;;
10082;SDS011;5080;48.528;8.078;2023-11-19T13:18:53;13.23;;;12.83;;
10082;SDS011;5080;48.528;8.078;2023-11-19T13:21:20;14.13;;;13.63;;
10082;SDS011;5080;48.528;8.078;2023-11-19T13:23:46;16.80;;;16.20;;
10082;SDS011;5080;48.528;8.078;2023-11-19T13:26:13;16.93;;;16.33;;
10082;SDS011;5080;48.528;8.078;2023-11-19T13:28:41;24.70;;;23.77;;
10082;SDS011;5080;48.528;8.078;2023-11-19T13:31:08;15.57;;;15.07;;
10082;SDS011;5080;48.528;8.078;2023-11-19T13:33:35;15.50;;;15.00;;
10082;SDS011;5080;48.528;8.078;2023-11-19T13:36:01;15.13;;;14.60;;
10082;SDS011;5080;48.528;8.078;2023-11-19T13:38:31;15.30;;;14.80;;
10082;SDS011;5080;48.528;8.078;2023-11-19T13:40:58;14.57;;;14.07;;
10082;SDS011;5080;48.528;8.078;2023-11-19T13:43:25;14.97;;;14.47;;
10082;SDS011;5080;48.528;8.078;2023-11-19T13:45:54;14.37;;;13.87;;
10082;SDS011;5080;48.528;8.078;2023-11-19T13:48:21;14.90;;;14.40;;
10082;SDS011;5080;48.528;8.078;2023-11-19T13:50:48;15.43;;;14.93;;
10082;SDS011;5080;48.528;8.078;2023-11-19T13:53:15;14.40;;;13.90;;
10082;SDS011;5080;48.528;8.078;2023-11-19T13:55:42;13.63;;;13.13;;
10082;SDS011;5080;48.528;8.078;2023-11-19T13:58:09;13.40;;;12.97;;
10082;SDS011;5080;48.528;8.078;2023-11-19T14:00:36;13.37;;;12.87;;
10082;SDS011;5080;48.528;8.078;2023-11-19T14:03:04;12.87;;;12.37;;
10082;SDS011;5080;48.528;8.078;2023-11-19T14:05:31;13.17;;;12.77;;
10082;SDS011;5080;48.528;8.078;2023-11-19T14:07:58;13.17;;;12.77;;
10082;SDS011;5080;48.528;8.078;2023-11-19T14:10:26;12.80;;;12.40;;
10082;SDS011;5080;48.528;8.078;2023-11-19T14:12:53;12.93;;;12.50;;
10082;SDS011;5080;48.528;8.078;2023-11-19T14:15:20;13.03;;;12.63;;
10082;SDS011;5080;48.528;8.078;2023-11-19T14:17:47;13.27;;;12.87;;
10082;SDS011;5080;48.528;8.078;2023-11-19T14:20:15;12.70;;;12.30;;
10082;SDS011;5080;48.528;8.078;2023-11-19T14:22:42;12.63;;;12.23;;
10082;SDS011;5080;48.528;8.078;2023-11-19T14:25:10;12.40;;;12.00;;
10082;SDS011;5080;48.528;8.078;2023-11-19T14:27:37;13.40;;;12.90;;
10082;SDS011;5080;48.528;8.078;2023-11-19T14:30:05;12.80;;;12.40;;
10082;SDS011;5080;48.528;8.078;2023-11-19T14:32:33;12.97;;;12.57;;
10082;SDS011;5080;48.528;8.078;2023-11-19T14:35:01;12.97;;;12.57;;
10082;SDS011;5080;48.528;8.078;2023-11-19T14:37:30;13.40;;;13.00;;
10082;SDS011;5080;48.528;8.078;2023-11-19T14:39:57;14.60;;;14.10;;
10082;SDS011;5080;48.528;8.078;2023-11-19T14:42:23;13.50;;;13.00;;
10082;SDS011;5080;48.528;8.078;2023-11-19T14:44:51;13.77;;;13.30;;